Johnstown, North Dakota
Current Conditions -  °F | °C
As of 4:28 PM on Friday 19 Dec 2014 (Local Time) from KRDR Reporting Station
Haze Haze  
Wind Chill: 21°   Ceiling: 300
Heat Index: 28°   Visibility: 2mi
Dew Point: 28°   Wind: 7mph
Humidity: 100%   Direction: 180°S
Pressure: 30.01"   Gusts: NA
Location:  48.1078°N, 97.4492°W
Report Text: KRDR 192228Z AUTO 18006KT 2SM BR OVC003 M02/M02 A3001 RMK AO2 VIS 1 1/2V2
Loading
Personal Weather Stations






























Interactive Weather Map New forecast layout! Learn more

10-Day Weather Forecast

Advertisements
Track Severe Weather on mobile